createdAt,value
2023-03-18T00:03:00.764Z,14.55
2023-03-18T00:06:02.112Z,13.40
2023-03-18T00:09:03.426Z,13.27
2023-03-18T00:12:04.731Z,11.07
2023-03-18T00:15:06.021Z,11.75
2023-03-18T00:18:07.321Z,12.70
2023-03-18T00:21:08.640Z,12.45
2023-03-18T00:24:10.110Z,10.10
2023-03-18T00:27:11.409Z,11.48
2023-03-18T00:30:12.715Z,11.77
2023-03-18T00:33:14.016Z,12.13
2023-03-18T00:36:15.344Z,10.70
2023-03-18T00:39:16.649Z,9.17
2023-03-18T00:42:17.962Z,9.70
2023-03-18T00:45:19.259Z,10.88
2023-03-18T00:48:20.574Z,11.27
2023-03-18T00:51:21.851Z,10.32
2023-03-18T00:54:23.129Z,10.33
2023-03-18T00:57:24.447Z,10.88
2023-03-18T01:00:25.737Z,10.00
2023-03-18T01:03:27.065Z,10.13
2023-03-18T01:06:28.445Z,9.68
2023-03-18T01:09:29.781Z,9.33
2023-03-18T01:12:31.073Z,9.38
2023-03-18T01:15:32.368Z,11.18
2023-03-18T01:18:33.675Z,9.90
2023-03-18T01:21:34.986Z,8.88
2023-03-18T01:24:36.277Z,9.47
2023-03-18T01:27:37.572Z,9.80
2023-03-18T01:30:38.863Z,9.43
2023-03-18T01:33:40.150Z,10.50
2023-03-18T01:36:41.439Z,9.35
2023-03-18T01:39:42.731Z,10.87
2023-03-18T01:42:44.029Z,9.77
2023-03-18T01:45:45.372Z,8.75
2023-03-18T01:48:46.729Z,8.30
2023-03-18T01:51:48.036Z,8.05
2023-03-18T01:54:49.311Z,8.03
2023-03-18T01:57:50.625Z,8.73
2023-03-18T02:00:51.992Z,8.65
2023-03-18T02:03:53.307Z,10.90
2023-03-18T02:06:54.617Z,9.57
2023-03-18T02:09:55.931Z,8.47
2023-03-18T02:12:57.249Z,8.75
2023-03-18T02:15:58.541Z,8.77
2023-03-18T02:18:59.855Z,8.63
2023-03-18T02:22:01.155Z,7.45
2023-03-18T02:25:02.463Z,8.30
2023-03-18T02:28:03.756Z,9.07
2023-03-18T02:31:05.180Z,7.90
2023-03-18T02:34:06.484Z,9.73
2023-03-18T02:37:07.802Z,8.93
2023-03-18T02:40:09.097Z,8.67
2023-03-18T02:43:10.416Z,9.55
2023-03-18T02:46:11.767Z,8.63
2023-03-18T02:49:13.099Z,9.02
2023-03-18T02:52:14.394Z,8.30
2023-03-18T02:55:15.686Z,8.30
2023-03-18T02:58:16.999Z,8.18
2023-03-18T03:01:18.315Z,9.55
2023-03-18T03:04:19.650Z,8.07
2023-03-18T03:07:20.938Z,6.60
2023-03-18T03:10:22.248Z,7.70
2023-03-18T03:13:23.556Z,8.65
2023-03-18T03:16:24.852Z,6.43
2023-03-18T03:19:26.170Z,9.05
2023-03-18T03:22:27.453Z,7.78
2023-03-18T03:25:28.766Z,8.13
2023-03-18T03:28:30.058Z,7.82
2023-03-18T03:31:31.405Z,8.40
2023-03-18T03:34:32.713Z,7.35
2023-03-18T03:37:33.988Z,6.63
2023-03-18T03:40:35.296Z,9.00
2023-03-18T03:43:36.570Z,7.80
2023-03-18T03:46:37.928Z,7.25
2023-03-18T03:49:39.308Z,7.30
2023-03-18T03:52:40.606Z,7.65
2023-03-18T03:55:41.894Z,7.00
2023-03-18T03:58:43.197Z,7.55
2023-03-18T04:01:44.508Z,6.50
2023-03-18T04:04:45.837Z,7.10
2023-03-18T04:07:47.132Z,6.85
2023-03-18T04:10:48.416Z,6.67
2023-03-18T04:13:49.720Z,7.68
2023-03-18T04:16:51.016Z,8.63
2023-03-18T04:19:52.322Z,10.23
2023-03-18T04:22:53.610Z,13.27
2023-03-18T04:25:54.898Z,18.87
2023-03-18T04:28:56.199Z,21.67
2023-03-18T04:31:57.499Z,21.20
2023-03-18T04:34:58.796Z,18.25
2023-03-18T04:38:00.106Z,16.27
2023-03-18T04:41:01.477Z,17.43
2023-03-18T04:44:02.788Z,15.02
2023-03-18T04:47:04.066Z,14.63
2023-03-18T04:50:05.367Z,12.20
2023-03-18T04:53:06.688Z,14.15
2023-03-18T04:56:07.984Z,12.70
2023-03-18T04:59:09.284Z,12.60
2023-03-18T05:02:10.589Z,11.13
2023-03-18T05:05:11.862Z,11.70
2023-03-18T05:08:13.170Z,10.75
2023-03-18T05:11:14.469Z,11.50
2023-03-18T05:14:15.754Z,9.63
2023-03-18T05:17:17.052Z,10.88
2023-03-18T05:20:18.350Z,11.93
2023-03-18T05:23:19.653Z,11.25
2023-03-18T05:26:20.971Z,9.90
2023-03-18T05:29:22.254Z,11.68
2023-03-18T05:32:23.575Z,10.13
2023-03-18T05:35:24.868Z,11.10
2023-03-18T05:38:26.181Z,10.35
2023-03-18T05:41:27.475Z,9.87
2023-03-18T05:44:28.787Z,11.20
2023-03-18T05:47:30.107Z,10.82
2023-03-18T05:50:31.407Z,10.45
2023-03-18T05:53:32.700Z,9.18
2023-03-18T05:56:33.993Z,9.40
2023-03-18T05:59:35.279Z,11.73
2023-03-18T06:02:36.584Z,10.48
2023-03-18T06:05:37.914Z,10.63
2023-03-18T06:08:39.189Z,11.40
2023-03-18T06:11:40.496Z,9.27
2023-03-18T06:14:41.783Z,9.15
2023-03-18T06:17:43.100Z,9.02
2023-03-18T06:20:44.416Z,10.38
2023-03-18T06:23:45.700Z,7.10
2023-03-18T06:26:46.997Z,8.43
2023-03-18T06:29:48.293Z,7.65
2023-03-18T06:32:49.665Z,9.45
2023-03-18T06:35:51.008Z,7.57
2023-03-18T06:38:52.361Z,10.73
2023-03-18T06:41:53.652Z,8.13
2023-03-18T06:44:54.958Z,8.82
2023-03-18T06:47:56.262Z,6.93
2023-03-18T06:50:57.578Z,7.22
2023-03-18T06:53:58.892Z,6.72
2023-03-18T06:57:00.205Z,7.13
2023-03-18T07:00:01.522Z,6.85
2023-03-18T07:03:02.843Z,6.65
2023-03-18T07:06:04.183Z,7.65
2023-03-18T07:09:05.503Z,6.38
2023-03-18T07:12:06.804Z,7.53
2023-03-18T07:15:08.114Z,7.32
2023-03-18T07:18:10.970Z,7.45
2023-03-18T07:21:13.435Z,5.20
2023-03-18T07:24:14.744Z,6.63
2023-03-18T07:27:16.037Z,8.23
2023-03-18T07:30:17.382Z,6.40
2023-03-18T07:33:18.665Z,7.18
2023-03-18T07:36:19.979Z,6.05
2023-03-18T07:39:21.250Z,7.15
2023-03-18T07:42:22.587Z,5.53
2023-03-18T07:45:23.889Z,5.55
2023-03-18T07:48:25.190Z,5.30
2023-03-18T07:51:26.477Z,6.47
2023-03-18T07:54:27.785Z,6.75
2023-03-18T07:57:29.074Z,8.53
2023-03-18T08:00:30.373Z,7.28
2023-03-18T08:03:31.793Z,6.78
2023-03-18T08:06:33.181Z,6.72
2023-03-18T08:09:34.453Z,6.15
2023-03-18T08:12:51.264Z,5.67
2023-03-18T08:15:54.259Z,5.25
2023-03-18T08:18:55.614Z,6.00
2023-03-18T08:21:56.930Z,7.18
2023-03-18T08:24:58.237Z,6.50
2023-03-18T08:27:59.556Z,6.03
2023-03-18T08:31:00.856Z,4.90
2023-03-18T08:34:02.143Z,6.05
2023-03-18T08:37:03.434Z,5.82
2023-03-18T08:40:04.738Z,6.88
2023-03-18T08:43:06.044Z,4.93
2023-03-18T08:46:07.408Z,5.85
2023-03-18T08:49:08.741Z,5.25
2023-03-18T08:52:10.044Z,6.35
2023-03-18T08:55:11.359Z,5.38
2023-03-18T08:58:12.692Z,6.07
2023-03-18T09:01:14.062Z,5.65
2023-03-18T09:04:15.442Z,5.95
2023-03-18T09:07:18.969Z,5.90
2023-03-18T09:10:20.417Z,5.47
2023-03-18T09:13:21.720Z,6.13
2023-03-18T09:16:23.120Z,4.78
2023-03-18T09:19:24.446Z,5.85
2023-03-18T09:22:25.729Z,5.03
2023-03-18T09:25:27.041Z,5.85
2023-03-18T09:28:28.321Z,5.30
2023-03-18T09:31:29.614Z,5.13
2023-03-18T09:34:30.918Z,5.97
2023-03-18T09:37:32.258Z,5.78
2023-03-18T09:40:33.566Z,5.20
2023-03-18T09:43:34.851Z,6.13
2023-03-18T09:46:36.252Z,5.60
2023-03-18T09:49:37.690Z,4.68
2023-03-18T09:52:38.976Z,5.32
2023-03-18T09:55:40.330Z,4.93
2023-03-18T09:58:41.634Z,6.17
2023-03-18T10:01:42.991Z,5.05
2023-03-18T10:04:44.371Z,6.25
2023-03-18T10:07:45.655Z,5.05
2023-03-18T10:10:46.950Z,5.32
2023-03-18T10:13:48.248Z,4.53
2023-03-18T10:16:49.553Z,4.53
2023-03-18T10:19:50.838Z,5.82
2023-03-18T10:22:52.142Z,5.10
2023-03-18T10:25:53.453Z,4.68
2023-03-18T10:28:54.776Z,4.80
2023-03-18T10:31:56.131Z,5.32
2023-03-18T10:34:57.462Z,4.93
2023-03-18T10:37:58.777Z,4.32
2023-03-18T10:41:00.085Z,4.95
2023-03-18T10:44:01.388Z,5.00
2023-03-18T10:47:02.830Z,4.90
2023-03-18T10:50:04.290Z,5.20
2023-03-18T10:53:05.598Z,4.15
2023-03-18T10:56:06.894Z,4.80
2023-03-18T10:59:09.408Z,4.03
2023-03-18T11:02:10.792Z,4.45
2023-03-18T11:05:12.116Z,5.45
2023-03-18T11:08:13.435Z,5.60
2023-03-18T11:11:14.731Z,5.85
2023-03-18T11:14:16.038Z,4.43
2023-03-18T11:17:17.318Z,4.82
2023-03-18T11:20:18.588Z,4.60
2023-03-18T11:23:20.002Z,4.70
2023-03-18T11:26:21.314Z,5.20
2023-03-18T11:29:22.608Z,5.33
2023-03-18T11:32:23.916Z,5.15
2023-03-18T11:35:25.287Z,4.35
2023-03-18T11:38:26.596Z,5.40
2023-03-18T11:41:27.887Z,5.25
2023-03-18T11:44:29.182Z,4.97
2023-03-18T11:47:30.467Z,4.57
2023-03-18T11:50:32.040Z,5.70
2023-03-18T11:53:33.486Z,4.07
2023-03-18T11:56:34.786Z,4.07
2023-03-18T11:59:36.089Z,4.40
2023-03-18T12:02:37.389Z,4.97
2023-03-18T12:05:38.693Z,4.50
2023-03-18T12:08:39.985Z,4.30
2023-03-18T12:11:41.295Z,5.18
2023-03-18T12:14:42.596Z,5.63
2023-03-18T12:17:43.896Z,4.47
2023-03-18T12:20:45.188Z,5.45
2023-03-18T12:23:47.962Z,3.60
2023-03-18T12:26:50.372Z,4.15
2023-03-18T12:29:51.659Z,4.17
2023-03-18T12:32:52.978Z,4.70
2023-03-18T12:35:54.357Z,4.90
2023-03-18T12:38:55.688Z,4.35
2023-03-18T12:41:56.970Z,5.15
2023-03-18T12:44:58.271Z,4.77
2023-03-18T12:47:59.572Z,5.22
2023-03-18T12:51:00.894Z,4.15
2023-03-18T12:54:02.186Z,4.95
2023-03-18T12:57:03.509Z,5.95
2023-03-18T13:00:04.814Z,4.43
2023-03-18T13:03:07.569Z,4.72
2023-03-18T13:06:09.093Z,5.95
2023-03-18T13:09:10.386Z,4.30
2023-03-18T13:12:11.696Z,4.82
2023-03-18T13:15:12.991Z,4.43
2023-03-18T13:18:14.297Z,4.90
2023-03-18T13:21:15.599Z,4.15
2023-03-18T13:24:17.030Z,4.43
2023-03-18T13:27:18.309Z,4.88
2023-03-18T13:30:19.607Z,4.37
2023-03-18T13:33:20.965Z,5.60
2023-03-18T13:36:22.256Z,4.88
2023-03-18T13:39:23.565Z,4.40
2023-03-18T13:42:24.847Z,4.85
2023-03-18T13:45:26.145Z,5.63
2023-03-18T13:48:27.438Z,4.93
2023-03-18T13:51:28.753Z,5.00
2023-03-18T13:54:30.046Z,5.28
2023-03-18T13:57:31.341Z,4.38
2023-03-18T14:00:32.630Z,4.63
2023-03-18T14:03:33.973Z,4.35
2023-03-18T14:06:35.295Z,5.43
2023-03-18T14:09:36.625Z,4.50
2023-03-18T14:12:37.943Z,4.72
2023-03-18T14:15:39.336Z,5.00
2023-03-18T14:18:40.688Z,4.80
2023-03-18T14:21:41.996Z,5.22
2023-03-18T14:24:43.327Z,4.63
2023-03-18T14:27:44.630Z,4.70
2023-03-18T14:30:45.959Z,5.63
2023-03-18T14:33:47.295Z,5.53
2023-03-18T14:36:48.616Z,4.85
2023-03-18T14:39:49.935Z,4.57
2023-03-18T14:42:51.226Z,4.80
2023-03-18T14:45:52.521Z,5.73
2023-03-18T14:48:53.842Z,5.65
2023-03-18T14:51:55.142Z,5.13
2023-03-18T14:54:56.455Z,5.65
2023-03-18T14:57:57.770Z,5.97
2023-03-18T15:00:59.067Z,5.40
2023-03-18T15:04:00.384Z,7.40
2023-03-18T15:07:01.687Z,6.43
2023-03-18T15:10:02.992Z,5.63
2023-03-18T15:13:04.325Z,5.53
2023-03-18T15:16:05.748Z,5.27
2023-03-18T15:19:07.109Z,4.80
2023-03-18T15:22:08.401Z,5.22
2023-03-18T15:25:09.676Z,6.05
2023-03-18T15:28:10.967Z,6.15
2023-03-18T15:31:12.300Z,5.43
2023-03-18T15:34:13.656Z,5.70
2023-03-18T15:37:14.947Z,6.25
2023-03-18T15:40:16.275Z,6.30
2023-03-18T15:43:17.623Z,5.13
2023-03-18T15:46:19.052Z,5.50
2023-03-18T15:49:20.374Z,5.68
2023-03-18T15:52:21.664Z,5.63
2023-03-18T15:55:22.964Z,6.30
2023-03-18T15:58:24.262Z,6.03
2023-03-18T16:01:25.639Z,6.23
2023-03-18T16:04:26.977Z,6.70
2023-03-18T16:07:28.301Z,7.53
2023-03-18T16:10:29.599Z,8.30
2023-03-18T16:13:30.885Z,7.70
2023-03-18T16:16:32.232Z,8.00
2023-03-18T16:19:33.555Z,7.63
2023-03-18T16:22:34.853Z,7.68
2023-03-18T16:25:36.162Z,7.72
2023-03-18T16:28:37.489Z,7.60
2023-03-18T16:31:38.883Z,7.63
2023-03-18T16:34:40.244Z,8.15
2023-03-18T16:37:41.616Z,8.07
2023-03-18T16:40:42.930Z,6.65
2023-03-18T16:43:44.219Z,7.85
2023-03-18T16:46:45.729Z,7.23
2023-03-18T16:49:47.080Z,8.80
2023-03-18T16:52:48.478Z,10.38
2023-03-18T16:55:49.778Z,8.55
2023-03-18T16:58:51.067Z,7.18
2023-03-18T17:01:52.381Z,9.23
2023-03-18T17:04:53.790Z,8.52
2023-03-18T17:07:55.106Z,7.78
2023-03-18T17:10:56.467Z,8.48
2023-03-18T17:13:57.777Z,9.82
2023-03-18T17:16:59.546Z,7.53
2023-03-18T17:20:00.954Z,9.20
2023-03-18T17:23:02.602Z,11.55
2023-03-18T17:26:03.982Z,12.35
2023-03-18T17:29:05.276Z,12.68
2023-03-18T17:32:06.584Z,12.90
2023-03-18T17:35:08.266Z,16.83
2023-03-18T17:38:10.946Z,19.45
2023-03-18T17:41:12.589Z,19.05
2023-03-18T17:44:14.293Z,20.92
2023-03-18T17:47:15.690Z,22.20
2023-03-18T17:50:17.169Z,20.27
2023-03-18T17:53:18.708Z,22.08
2023-03-18T17:56:20.108Z,20.77
2023-03-18T17:59:21.862Z,22.40
2023-03-18T18:02:23.538Z,25.60
2023-03-18T18:05:25.388Z,24.42
2023-03-18T18:08:26.934Z,24.35
2023-03-18T18:11:28.361Z,21.77
2023-03-18T18:14:29.890Z,25.33
2023-03-18T18:17:32.615Z,24.07
2023-03-18T18:20:34.454Z,25.17
2023-03-18T18:23:36.010Z,25.95
2023-03-18T18:26:37.342Z,28.30
2023-03-18T18:29:39.110Z,29.30
2023-03-18T18:32:41.096Z,32.03
2023-03-18T18:35:42.914Z,29.13
2023-03-18T18:38:45.261Z,32.15
2023-03-18T18:41:47.128Z,30.90
2023-03-18T18:44:48.630Z,26.38
2023-03-18T18:47:50.366Z,28.87
2023-03-18T18:50:52.197Z,30.30
2023-03-18T18:53:54.047Z,28.67
2023-03-18T18:56:55.404Z,28.38
2023-03-18T18:59:57.060Z,30.55
2023-03-18T19:03:01.290Z,28.83
2023-03-18T19:06:03.267Z,30.52
2023-03-18T19:09:05.157Z,32.08
2023-03-18T19:12:07.060Z,31.23
2023-03-18T19:15:08.941Z,31.25
2023-03-18T19:21:37.105Z,31.98
2023-03-18T19:24:38.967Z,29.00
2023-03-18T19:27:40.747Z,32.45
2023-03-18T19:30:42.609Z,30.58
2023-03-18T19:33:44.633Z,30.13
2023-03-18T19:36:47.015Z,33.25
2023-03-18T19:43:14.633Z,33.30
2023-03-18T19:46:16.067Z,39.60
2023-03-18T19:49:19.541Z,40.33
2023-03-18T19:52:21.434Z,38.17
2023-03-18T19:55:23.358Z,41.92
2023-03-18T19:58:24.745Z,35.47
2023-03-18T20:01:27.400Z,37.75
2023-03-18T20:04:29.347Z,35.80
2023-03-18T20:07:31.274Z,36.03
2023-03-18T20:10:33.107Z,35.53
2023-03-18T20:13:35.053Z,33.97
2023-03-18T20:16:37.015Z,35.05
2023-03-18T20:19:39.042Z,31.70
2023-03-18T20:22:40.909Z,33.22
2023-03-18T20:25:42.834Z,32.10
2023-03-18T20:28:44.661Z,33.10
2023-03-18T20:31:46.544Z,32.25
2023-03-18T20:34:48.440Z,31.10
2023-03-18T20:37:50.353Z,30.75
2023-03-18T20:40:52.256Z,29.23
2023-03-18T20:43:54.098Z,29.23
2023-03-18T20:46:55.934Z,28.70
2023-03-18T20:49:58.366Z,27.67
2023-03-18T20:53:00.165Z,26.73
2023-03-18T20:56:02.016Z,29.25
2023-03-18T20:59:03.827Z,24.10
2023-03-18T21:02:05.417Z,28.38
2023-03-18T21:05:07.240Z,25.67
2023-03-18T21:08:08.660Z,25.92
2023-03-18T21:11:09.991Z,24.63
2023-03-18T21:14:11.428Z,23.45
2023-03-18T21:17:13.204Z,23.88
2023-03-18T21:20:21.766Z,23.17
2023-03-18T21:23:23.655Z,22.75
2023-03-18T21:26:25.446Z,21.48
2023-03-18T21:29:27.516Z,23.70
2023-03-18T21:32:28.990Z,22.73
2023-03-18T21:35:30.669Z,22.53
2023-03-18T21:38:32.306Z,22.80
2023-03-18T21:41:33.666Z,23.85
2023-03-18T21:44:34.995Z,21.02
2023-03-18T21:47:36.295Z,22.60
2023-03-18T21:50:37.598Z,22.17
2023-03-18T21:53:38.939Z,21.15
2023-03-18T21:56:40.227Z,22.88
2023-03-18T21:59:42.014Z,21.45
2023-03-18T22:02:43.450Z,21.10
2023-03-18T22:05:44.780Z,19.63
2023-03-18T22:08:46.080Z,21.55
2023-03-18T22:11:47.384Z,22.27
2023-03-18T22:14:48.685Z,22.05
2023-03-18T22:17:49.996Z,20.77
2023-03-18T22:20:51.361Z,23.53
2023-03-18T22:23:52.700Z,20.83
2023-03-18T22:26:54.018Z,20.95
2023-03-18T22:29:55.308Z,19.70
2023-03-18T22:32:56.627Z,20.50
2023-03-18T22:35:57.964Z,18.40
2023-03-18T22:38:59.279Z,19.48
2023-03-18T22:42:00.547Z,16.85
2023-03-18T22:45:01.843Z,18.30
2023-03-18T22:48:03.144Z,18.13
2023-03-18T22:51:04.463Z,16.23
2023-03-18T22:54:05.771Z,17.67
2023-03-18T22:57:07.070Z,16.35
2023-03-18T23:00:08.381Z,20.50
2023-03-18T23:03:09.676Z,15.95
2023-03-18T23:06:10.977Z,16.07
2023-03-18T23:09:12.281Z,16.52
2023-03-18T23:12:13.606Z,17.20
2023-03-18T23:15:14.884Z,14.73
2023-03-18T23:18:16.202Z,15.32
2023-03-18T23:21:17.508Z,14.83
2023-03-18T23:24:18.791Z,15.40
2023-03-18T23:27:20.087Z,13.80
2023-03-18T23:30:21.383Z,14.57
2023-03-18T23:33:22.771Z,14.90
2023-03-18T23:36:24.061Z,13.93
2023-03-18T23:39:25.361Z,14.43
2023-03-18T23:42:26.661Z,14.07
2023-03-18T23:45:28.103Z,14.20
2023-03-18T23:48:29.631Z,13.70
2023-03-18T23:51:30.936Z,13.93
2023-03-18T23:54:32.246Z,13.00
2023-03-18T23:57:33.557Z,13.48
